createdAt,value
2019-04-11T00:02:10.554Z,62.30
2019-04-11T00:04:42.039Z,61.80
2019-04-11T00:07:14.236Z,61.50
2019-04-11T00:09:45.210Z,62.10
2019-04-11T00:12:16.616Z,62.50
2019-04-11T00:14:48.388Z,62.60
2019-04-11T00:17:19.573Z,63.60
2019-04-11T00:19:51.553Z,62.80
2019-04-11T00:22:25.454Z,63.50
2019-04-11T00:24:56.480Z,63.80
2019-04-11T00:27:28.856Z,63.10
2019-04-11T00:29:59.761Z,63.40
2019-04-11T00:32:32.075Z,63.00
2019-04-11T00:35:03.695Z,63.30
2019-04-11T00:37:36.838Z,63.10
2019-04-11T00:40:09.004Z,63.40
2019-04-11T00:42:40.853Z,63.40
2019-04-11T00:45:13.599Z,64.00
2019-04-11T00:47:45.629Z,63.60
2019-04-11T00:50:16.412Z,63.10
2019-04-11T00:52:51.666Z,63.60
2019-04-11T00:55:23.731Z,63.60
2019-04-11T00:57:57.416Z,64.50
2019-04-11T01:00:29.170Z,64.10
2019-04-11T01:03:00.132Z,64.00
2019-04-11T01:05:31.788Z,64.20
2019-04-11T01:08:03.134Z,64.60
2019-04-11T01:10:34.561Z,65.10
2019-04-11T01:13:08.920Z,64.80
2019-04-11T01:15:45.486Z,65.10
2019-04-11T01:18:18.038Z,65.90
2019-04-11T01:20:49.886Z,65.30
2019-04-11T01:23:20.778Z,65.30
2019-04-11T01:25:52.744Z,66.30
2019-04-11T01:28:24.783Z,65.40
2019-04-11T01:31:06.510Z,65.80
2019-04-11T01:33:37.987Z,66.80
2019-04-11T01:36:12.669Z,65.90
2019-04-11T01:38:51.208Z,66.20
2019-04-11T01:41:24.649Z,66.00
2019-04-11T01:44:00.762Z,65.90
2019-04-11T01:46:31.976Z,66.30
2019-04-11T01:49:10.196Z,66.50
2019-04-11T01:51:42.156Z,66.60
2019-04-11T01:54:17.500Z,66.50
2019-04-11T01:56:49.455Z,66.90
2019-04-11T01:59:21.508Z,67.10
2019-04-11T02:02:21.230Z,67.10
2019-04-11T02:05:05.039Z,66.80
2019-04-11T02:07:36.552Z,67.30
2019-04-11T02:10:08.550Z,66.90
2019-04-11T02:12:39.556Z,67.20
2019-04-11T02:15:12.321Z,66.70
2019-04-11T02:17:43.347Z,66.70
2019-04-11T02:20:22.995Z,66.60
2019-04-11T02:23:15.326Z,67.20
2019-04-11T02:26:09.926Z,66.40
2019-04-11T02:28:42.359Z,67.20
2019-04-11T02:31:13.888Z,66.40
2019-04-11T02:33:46.856Z,67.00
2019-04-11T02:36:20.722Z,67.40
2019-04-11T02:38:59.065Z,66.80
2019-04-11T02:41:29.948Z,67.00
2019-04-11T02:44:01.497Z,67.40
2019-04-11T02:46:42.566Z,67.00
2019-04-11T02:49:10.296Z,66.90
2019-04-11T02:51:44.866Z,66.90
2019-04-11T02:54:16.030Z,66.90
2019-04-11T02:56:50.434Z,67.00
2019-04-11T02:59:25.218Z,67.50
2019-04-11T03:01:58.033Z,67.80
2019-04-11T03:04:30.978Z,67.70
2019-04-11T03:07:03.926Z,67.60
2019-04-11T03:09:35.320Z,68.80
2019-04-11T03:12:07.436Z,67.60
2019-04-11T03:15:01.086Z,67.70
2019-04-11T03:17:19.652Z,67.60
2019-04-11T03:19:59.598Z,67.80
2019-04-11T03:22:20.264Z,68.00
2019-04-11T03:24:53.439Z,69.10
2019-04-11T03:27:28.155Z,69.20
2019-04-11T03:30:00.209Z,69.10
2019-04-11T03:33:17.026Z,69.70
2019-04-11T03:36:07.010Z,69.60
2019-04-11T03:38:12.427Z,69.70
2019-04-11T03:40:45.896Z,69.60
2019-04-11T03:43:11.773Z,70.60
2019-04-11T03:45:48.009Z,70.00
2019-04-11T03:48:20.419Z,70.20
2019-04-11T03:50:39.316Z,70.70
2019-04-11T03:53:11.638Z,70.80
2019-04-11T03:55:43.363Z,70.70
2019-04-11T03:58:15.499Z,70.90
2019-04-11T04:00:50.545Z,70.70
2019-04-11T04:03:20.343Z,70.90
2019-04-11T04:05:55.278Z,71.10
2019-04-11T04:08:29.700Z,71.10
2019-04-11T04:11:08.666Z,71.10
2019-04-11T04:13:45.518Z,71.50
2019-04-11T04:16:44.418Z,71.70
2019-04-11T04:19:35.109Z,72.10
2019-04-11T04:22:11.329Z,72.40
2019-04-11T04:24:46.855Z,72.50
2019-04-11T04:27:19.972Z,73.30
2019-04-11T04:29:55.846Z,73.20
2019-04-11T04:32:25.140Z,73.20
2019-04-11T04:34:56.429Z,72.70
2019-04-11T04:37:29.594Z,73.30
2019-04-11T04:40:19.004Z,73.70
2019-04-11T04:42:42.261Z,74.00
2019-04-11T04:45:10.176Z,73.70
2019-04-11T04:47:47.740Z,73.60
2019-04-11T04:50:15.463Z,73.90
2019-04-11T04:52:46.810Z,74.30
2019-04-11T04:55:19.290Z,75.20
2019-04-11T04:57:51.168Z,75.20
2019-04-11T05:00:23.392Z,75.60
2019-04-11T05:02:55.044Z,75.50
2019-04-11T05:05:35.651Z,75.60
2019-04-11T05:08:08.182Z,76.70
2019-04-11T05:10:40.338Z,76.20
2019-04-11T05:13:12.986Z,76.70
2019-04-11T05:15:46.496Z,76.30
2019-04-11T05:18:20.200Z,76.50
2019-04-11T05:20:50.758Z,76.40
2019-04-11T05:23:22.039Z,76.40
2019-04-11T05:25:53.111Z,76.70
2019-04-11T05:28:25.475Z,77.00
2019-04-11T05:30:56.349Z,77.10
2019-04-11T05:33:27.734Z,76.60
2019-04-11T05:35:58.644Z,77.20
2019-04-11T05:38:29.478Z,77.30
2019-04-11T05:41:00.160Z,77.00
2019-04-11T05:43:36.618Z,76.50
2019-04-11T05:46:21.941Z,76.60
2019-04-11T05:48:47.146Z,76.80
2019-04-11T05:51:21.256Z,76.90
2019-04-11T05:53:54.179Z,76.40
2019-04-11T05:56:29.825Z,76.00
2019-04-11T05:59:10.219Z,75.40
2019-04-11T06:01:45.144Z,75.10
2019-04-11T06:04:30.178Z,74.60
2019-04-11T06:07:32.760Z,74.30
2019-04-11T06:10:11.192Z,73.50
2019-04-11T06:12:56.814Z,73.20
2019-04-11T06:15:31.668Z,73.20
2019-04-11T06:18:05.368Z,72.40
2019-04-11T06:20:47.250Z,72.20
2019-04-11T06:23:41.453Z,71.70
2019-04-11T06:26:47.502Z,71.50
2019-04-11T06:29:26.840Z,70.60
2019-04-11T06:32:15.922Z,69.40
2019-04-11T06:34:52.317Z,68.80
2019-04-11T06:37:58.292Z,66.20
2019-04-11T06:40:35.154Z,66.30
2019-04-11T06:43:34.174Z,64.60
2019-04-11T06:46:33.375Z,65.40
2019-04-11T06:49:28.944Z,63.70
2019-04-11T06:52:02.208Z,62.50
2019-04-11T06:54:41.370Z,60.70
2019-04-11T06:57:16.431Z,61.40
2019-04-11T06:59:48.411Z,60.50
2019-04-11T07:02:21.392Z,59.20
2019-04-11T07:04:53.993Z,59.50
2019-04-11T07:07:28.723Z,57.70
2019-04-11T07:10:04.085Z,58.00
2019-04-11T07:13:00.686Z,57.20
2019-04-11T07:15:39.808Z,54.70
2019-04-11T07:18:29.076Z,54.70
2019-04-11T07:21:06.219Z,55.60
2019-04-11T07:23:55.564Z,53.70
2019-04-11T07:26:45.843Z,54.70
2019-04-11T07:29:50.788Z,52.90
2019-04-11T07:32:25.718Z,50.80
2019-04-11T07:35:22.581Z,52.40
2019-04-11T07:37:58.259Z,50.40
2019-04-11T07:40:58.989Z,52.60
2019-04-11T07:43:33.530Z,51.70
2019-04-11T07:46:25.201Z,48.80
2019-04-11T07:49:06.394Z,48.90
2019-04-11T07:51:48.724Z,46.40
2019-04-11T07:54:25.770Z,48.20
2019-04-11T07:57:17.548Z,47.50
2019-04-11T08:00:19.371Z,46.30
2019-04-11T08:03:14.460Z,46.00
2019-04-11T08:06:22.393Z,43.30
2019-04-11T08:09:13.194Z,44.00
2019-04-11T08:11:52.931Z,44.40
2019-04-11T08:14:43.186Z,43.30
2019-04-11T08:17:42.367Z,42.00
2019-04-11T08:20:29.095Z,41.90
2019-04-11T08:23:03.515Z,42.10
2019-04-11T08:26:01.890Z,40.80
2019-04-11T08:28:34.049Z,42.30
2019-04-11T08:31:28.761Z,41.70
2019-04-11T08:34:02.897Z,39.00
2019-04-11T08:37:01.620Z,38.40
2019-04-11T08:39:37.403Z,36.30
2019-04-11T08:42:33.718Z,37.10
2019-04-11T08:45:06.584Z,38.10
2019-04-11T08:47:47.623Z,37.00
2019-04-11T08:50:20.668Z,38.60
2019-04-11T08:53:08.766Z,36.00
2019-04-11T08:55:55.692Z,36.80
2019-04-11T08:58:40.680Z,34.30
2019-04-11T09:01:13.778Z,34.70
2019-04-11T09:04:10.005Z,33.20
2019-04-11T09:06:40.971Z,34.90
2019-04-11T09:09:31.404Z,30.30
2019-04-11T09:12:04.495Z,31.10
2019-04-11T09:15:00.294Z,30.00
2019-04-11T09:17:38.675Z,32.80
2019-04-11T09:20:38.206Z,30.70
2019-04-11T09:23:14.371Z,28.30
2019-04-11T09:26:20.190Z,30.90
2019-04-11T09:28:53.704Z,28.50
2019-04-11T09:31:43.882Z,28.30
2019-04-11T09:34:41.897Z,29.30
2019-04-11T09:37:25.726Z,28.10
2019-04-11T09:40:19.507Z,28.40
2019-04-11T09:43:07.833Z,26.80
2019-04-11T09:45:57.727Z,27.90
2019-04-11T09:48:46.358Z,27.20
2019-04-11T09:51:40.109Z,25.40
2019-04-11T09:54:42.483Z,25.00
2019-04-11T09:57:24.746Z,26.60
2019-04-11T10:00:27.096Z,27.00
2019-04-11T10:03:19.667Z,27.40
2019-04-11T10:06:36.610Z,25.50
2019-04-11T10:09:17.290Z,23.50
2019-04-11T10:12:40.303Z,24.20
2019-04-11T10:15:13.434Z,21.20
2019-04-11T10:18:03.188Z,23.10
2019-04-11T10:20:34.964Z,23.90
2019-04-11T10:23:29.220Z,22.30
2019-04-11T10:26:03.546Z,22.10
2019-04-11T10:29:00.667Z,22.80
2019-04-11T10:31:34.618Z,21.70
2019-04-11T10:34:15.669Z,21.80
2019-04-11T10:36:55.996Z,22.40
2019-04-11T10:39:43.800Z,21.60
2019-04-11T10:42:15.447Z,23.80
2019-04-11T10:45:05.103Z,21.00
2019-04-11T10:47:36.743Z,21.20
2019-04-11T10:50:26.710Z,23.20
2019-04-11T10:53:00.634Z,19.20
2019-04-11T10:55:47.098Z,20.80
2019-04-11T10:58:21.183Z,22.00
2019-04-11T11:01:09.540Z,21.50
2019-04-11T11:03:55.800Z,21.20
2019-04-11T11:06:29.588Z,18.70
2019-04-11T11:09:22.289Z,20.70
2019-04-11T11:12:12.650Z,19.70
2019-04-11T11:15:03.074Z,20.50
2019-04-11T11:18:29.623Z,19.20
2019-04-11T11:20:42.998Z,19.60
2019-04-11T11:23:20.458Z,18.30
2019-04-11T11:26:03.112Z,18.00
2019-04-11T11:28:36.663Z,18.70
2019-04-11T11:31:27.910Z,19.10
2019-04-11T11:34:00.764Z,19.40
2019-04-11T11:36:55.047Z,19.10
2019-04-11T11:39:49.117Z,17.10
2019-04-11T11:42:50.863Z,19.30
2019-04-11T11:45:49.153Z,22.30
2019-04-11T11:48:35.404Z,22.60
2019-04-11T11:51:22.684Z,19.50
2019-04-11T11:54:05.261Z,20.60
2019-04-11T11:56:38.097Z,17.70
2019-04-11T11:59:23.093Z,19.00
2019-04-11T12:01:57.990Z,19.60
2019-04-11T12:04:46.598Z,19.30
2019-04-11T12:07:22.994Z,22.40
2019-04-11T12:10:11.742Z,22.30
2019-04-11T12:13:04.387Z,22.10
2019-04-11T12:15:49.019Z,21.20
2019-04-11T12:18:49.807Z,19.50
2019-04-11T12:21:26.478Z,19.10
2019-04-11T12:24:30.136Z,17.50
2019-04-11T12:27:20.692Z,19.60
2019-04-11T12:30:21.032Z,22.00
2019-04-11T12:32:59.233Z,20.10
2019-04-11T12:35:40.115Z,21.70
2019-04-11T12:38:31.129Z,23.50
2019-04-11T12:41:26.780Z,21.90
2019-04-11T12:44:16.576Z,21.60
2019-04-11T12:47:18.815Z,20.30
2019-04-11T12:50:08.021Z,20.40
2019-04-11T12:52:45.992Z,20.40
2019-04-11T12:55:22.308Z,20.20
2019-04-11T12:58:10.931Z,20.10
2019-04-11T13:00:55.592Z,19.60
2019-04-11T13:03:44.253Z,19.90
2019-04-11T13:06:34.604Z,20.20
2019-04-11T13:09:31.891Z,20.40
2019-04-11T13:12:03.341Z,20.00
2019-04-11T13:14:50.944Z,18.60
2019-04-11T13:17:25.840Z,18.50
2019-04-11T13:20:33.707Z,19.70
2019-04-11T13:23:12.745Z,19.10
2019-04-11T13:26:20.992Z,18.20
2019-04-11T13:28:58.805Z,18.30
2019-04-11T13:31:46.740Z,19.70
2019-04-11T13:34:17.872Z,19.80
2019-04-11T13:37:16.524Z,18.10
2019-04-11T13:39:52.890Z,18.00
2019-04-11T13:42:42.587Z,19.20
2019-04-11T13:45:14.359Z,17.90
2019-04-11T13:48:03.014Z,20.60
2019-04-11T13:50:34.925Z,19.80
2019-04-11T13:53:23.591Z,19.80
2019-04-11T13:55:54.319Z,20.80
2019-04-11T13:59:03.383Z,20.90
2019-04-11T14:01:36.772Z,19.80
2019-04-11T14:04:13.260Z,18.60
2019-04-11T14:06:44.512Z,18.70
2019-04-11T14:09:33.283Z,20.30
2019-04-11T14:12:09.629Z,21.60
2019-04-11T14:14:48.771Z,21.30
2019-04-11T14:17:50.751Z,20.90
2019-04-11T14:20:41.785Z,20.80
2019-04-11T14:23:34.772Z,20.40
2019-04-11T14:26:28.839Z,21.20
2019-04-11T14:29:18.969Z,21.70
2019-04-11T14:31:53.835Z,21.30
2019-04-11T14:34:54.483Z,22.50
2019-04-11T14:37:38.293Z,23.70
2019-04-11T14:40:24.125Z,22.50
2019-04-11T14:43:16.152Z,22.20
2019-04-11T14:46:06.893Z,21.90
2019-04-11T14:48:43.731Z,21.50
2019-04-11T14:51:47.288Z,21.90
2019-04-11T14:54:20.791Z,21.60
2019-04-11T14:57:17.604Z,21.80
2019-04-11T14:59:53.815Z,21.30
2019-04-11T15:02:44.359Z,21.80
2019-04-11T15:05:35.269Z,23.30
2019-04-11T15:08:07.069Z,22.80
2019-04-11T15:10:52.368Z,22.10
2019-04-11T15:13:27.110Z,23.90
2019-04-11T15:16:32.229Z,23.80
2019-04-11T15:19:03.922Z,24.00
2019-04-11T15:22:06.899Z,24.30
2019-04-11T15:24:38.195Z,24.90
2019-04-11T15:27:38.513Z,24.70
2019-04-11T15:30:11.490Z,24.40
2019-04-11T15:33:17.860Z,25.60
2019-04-11T15:35:49.978Z,25.40
2019-04-11T15:38:38.779Z,25.90
2019-04-11T15:41:10.175Z,27.00
2019-04-11T15:43:59.008Z,27.10
2019-04-11T15:46:33.526Z,27.70
2019-04-11T15:49:30.345Z,27.90
2019-04-11T15:52:11.709Z,28.20
2019-04-11T15:55:02.293Z,28.60
2019-04-11T15:57:44.765Z,29.20
2019-04-11T16:00:44.496Z,29.10
2019-04-11T16:03:24.508Z,29.20
2019-04-11T16:06:12.686Z,29.70
2019-04-11T16:08:48.404Z,29.70
2019-04-11T16:11:53.267Z,29.80
2019-04-11T16:14:36.169Z,30.30
2019-04-11T16:17:42.423Z,30.20
2019-04-11T16:20:19.248Z,30.50
2019-04-11T16:23:08.931Z,31.50
2019-04-11T16:25:43.599Z,31.90
2019-04-11T16:28:42.394Z,32.00
2019-04-11T16:31:14.055Z,31.80
2019-04-11T16:34:01.958Z,31.10
2019-04-11T16:36:53.674Z,30.90
2019-04-11T16:39:49.972Z,30.60
2019-04-11T16:42:25.881Z,31.10
2019-04-11T16:45:25.088Z,30.90
2019-04-11T16:48:04.625Z,31.40
2019-04-11T16:50:35.600Z,31.80
2019-04-11T16:53:10.433Z,31.50
2019-04-11T16:55:43.203Z,31.30
2019-04-11T16:58:17.047Z,31.90
2019-04-11T17:00:52.067Z,32.10
2019-04-11T17:03:19.362Z,32.40
2019-04-11T17:06:02.189Z,32.40
2019-04-11T17:08:37.856Z,32.60
2019-04-11T17:11:11.611Z,32.40
2019-04-11T17:13:42.372Z,32.60
2019-04-11T17:16:17.991Z,32.90
2019-04-11T17:18:50.437Z,32.30
2019-04-11T17:21:23.214Z,32.40
2019-04-11T17:23:53.761Z,32.60
2019-04-11T17:26:25.242Z,32.70
2019-04-11T17:28:56.120Z,34.00
2019-04-11T17:31:26.856Z,35.00
2019-04-11T17:34:01.410Z,35.40
2019-04-11T17:36:30.802Z,35.10
2019-04-11T17:39:07.692Z,35.10
2019-04-11T17:41:41.799Z,35.20
2019-04-11T17:44:12.259Z,37.10
2019-04-11T17:46:43.944Z,40.00
2019-04-11T17:49:14.660Z,39.80
2019-04-11T17:51:55.274Z,37.60
2019-04-11T17:54:18.060Z,37.50
2019-04-11T17:56:49.002Z,37.50
2019-04-11T17:59:19.750Z,37.80
2019-04-11T18:01:50.444Z,38.40
2019-04-11T18:04:21.157Z,38.50
2019-04-11T18:06:51.914Z,39.00
2019-04-11T18:09:25.689Z,39.30
2019-04-11T18:11:56.229Z,40.90
2019-04-11T18:14:31.005Z,40.40
2019-04-11T18:17:03.859Z,41.90
2019-04-11T18:19:33.884Z,41.20
2019-04-11T18:22:08.015Z,41.50
2019-04-11T18:24:39.349Z,41.30
2019-04-11T18:27:10.004Z,42.80
2019-04-11T18:29:40.898Z,42.60
2019-04-11T18:32:11.646Z,43.50
2019-04-11T18:34:42.673Z,43.10
2019-04-11T18:37:13.408Z,44.10
2019-04-11T18:39:45.460Z,44.30
2019-04-11T18:42:16.137Z,44.70
2019-04-11T18:44:47.010Z,44.70
2019-04-11T18:47:17.979Z,44.50
2019-04-11T18:49:50.937Z,44.70
2019-04-11T18:52:24.912Z,45.30
2019-04-11T18:54:53.698Z,45.30
2019-04-11T18:57:25.906Z,45.80
2019-04-11T18:59:58.004Z,45.90
2019-04-11T19:02:28.689Z,46.50
2019-04-11T19:05:02.055Z,46.80
2019-04-11T19:07:31.862Z,46.90
2019-04-11T19:10:02.613Z,47.90
2019-04-11T19:12:34.928Z,47.40
2019-04-11T19:15:06.862Z,47.50
2019-04-11T19:17:37.616Z,47.90
2019-04-11T19:20:09.173Z,47.60
2019-04-11T19:22:39.849Z,48.40
2019-04-11T19:25:12.084Z,48.40
2019-04-11T19:27:43.059Z,48.60
2019-04-11T19:30:14.020Z,49.00
2019-04-11T19:32:44.734Z,49.20
2019-04-11T19:35:15.380Z,48.70
2019-04-11T19:37:46.037Z,49.80
2019-04-11T19:40:17.312Z,49.80
2019-04-11T19:42:49.229Z,50.00
2019-04-11T19:45:20.515Z,50.10
2019-04-11T19:47:52.285Z,50.60
2019-04-11T19:50:23.625Z,51.10
2019-04-11T19:52:54.435Z,51.40
2019-04-11T19:55:39.113Z,51.30
2019-04-11T19:58:20.400Z,51.10
2019-04-11T20:00:53.905Z,51.70
2019-04-11T20:03:24.735Z,51.90
2019-04-11T20:05:58.211Z,51.90
2019-04-11T20:08:29.289Z,52.70
2019-04-11T20:11:01.355Z,52.20
2019-04-11T20:13:32.870Z,52.90
2019-04-11T20:16:03.895Z,52.80
2019-04-11T20:18:34.557Z,53.30
2019-04-11T20:21:07.560Z,53.40
2019-04-11T20:23:41.424Z,54.10
2019-04-11T20:26:12.842Z,53.80
2019-04-11T20:28:43.834Z,54.30
2019-04-11T20:31:14.606Z,53.90
2019-04-11T20:33:45.453Z,54.30
2019-04-11T20:36:16.141Z,54.10
2019-04-11T20:38:46.864Z,54.30
2019-04-11T20:41:17.785Z,55.00
2019-04-11T20:43:48.615Z,54.90
2019-04-11T20:46:19.430Z,54.40
2019-04-11T20:48:50.070Z,55.00
2019-04-11T20:51:21.577Z,55.20
2019-04-11T20:53:52.380Z,55.60
2019-04-11T20:56:25.367Z,56.20
2019-04-11T20:58:56.204Z,55.90
2019-04-11T21:01:27.811Z,55.90
2019-04-11T21:04:00.333Z,56.50
2019-04-11T21:06:37.798Z,56.80
2019-04-11T21:09:12.599Z,56.90
2019-04-11T21:11:43.391Z,56.80
2019-04-11T21:14:14.717Z,57.00
2019-04-11T21:16:45.359Z,57.20
2019-04-11T21:19:16.067Z,57.40
2019-04-11T21:21:47.966Z,57.50
2019-04-11T21:24:18.819Z,57.90
2019-04-11T21:26:49.580Z,57.50
2019-04-11T21:29:20.324Z,57.90
2019-04-11T21:31:51.085Z,58.30
2019-04-11T21:34:21.863Z,58.20
2019-04-11T21:36:52.859Z,57.80
2019-04-11T21:39:23.694Z,57.80
2019-04-11T21:41:57.891Z,57.80
2019-04-11T21:44:28.584Z,58.10
2019-04-11T21:47:00.982Z,58.10
2019-04-11T21:49:36.671Z,58.20
2019-04-11T21:52:05.725Z,57.90
2019-04-11T21:54:36.500Z,57.30
2019-04-11T21:57:08.107Z,57.30
2019-04-11T21:59:38.798Z,57.60
2019-04-11T22:02:11.901Z,57.10
2019-04-11T22:04:42.639Z,57.40
2019-04-11T22:07:13.288Z,57.20
2019-04-11T22:09:43.949Z,57.30
2019-04-11T22:12:14.662Z,57.40
2019-04-11T22:14:49.395Z,57.40
2019-04-11T22:17:21.120Z,57.10
2019-04-11T22:19:54.644Z,57.00
2019-04-11T22:22:25.486Z,57.10
2019-04-11T22:24:56.232Z,57.50
2019-04-11T22:27:27.278Z,57.60
2019-04-11T22:29:58.010Z,57.60
2019-04-11T22:32:28.933Z,57.40
2019-04-11T22:35:01.510Z,57.30
2019-04-11T22:37:32.247Z,57.40
2019-04-11T22:40:04.884Z,57.60
2019-04-11T22:42:35.650Z,57.50
2019-04-11T22:45:08.516Z,57.60
2019-04-11T22:47:39.903Z,57.60
2019-04-11T22:50:10.827Z,57.60
2019-04-11T22:52:42.231Z,57.60
2019-04-11T22:55:13.486Z,57.60
2019-04-11T22:57:44.545Z,57.60
2019-04-11T23:00:15.942Z,57.60
2019-04-11T23:03:04.572Z,57.80
2019-04-11T23:05:35.432Z,57.70
2019-04-11T23:08:08.077Z,57.60
2019-04-11T23:10:41.616Z,57.60
2019-04-11T23:13:15.473Z,57.60
2019-04-11T23:15:45.069Z,57.50
2019-04-11T23:18:16.139Z,57.00
2019-04-11T23:20:49.102Z,57.10
2019-04-11T23:23:20.196Z,57.10
2019-04-11T23:25:50.964Z,57.00
2019-04-11T23:28:21.823Z,57.20
2019-04-11T23:30:54.448Z,57.30
2019-04-11T23:33:25.265Z,58.00
2019-04-11T23:35:56.547Z,57.30
2019-04-11T23:38:27.178Z,57.20
2019-04-11T23:40:57.944Z,57.20
2019-04-11T23:43:28.696Z,57.10
2019-04-11T23:45:59.554Z,57.40
2019-04-11T23:48:30.747Z,57.20
2019-04-11T23:51:02.608Z,57.40
2019-04-11T23:53:33.713Z,57.50
2019-04-11T23:56:04.485Z,57.60
2019-04-11T23:58:35.200Z,57.80
